sensor_id;sensor_type;location;lat;lon;timestamp;temperature;humidity
49042;DHT22;34859;51.608;11.462;2022-10-16T00:01:59;15.30;99.90
49042;DHT22;34859;51.608;11.462;2022-10-16T00:04:44;15.20;99.90
49042;DHT22;34859;51.608;11.462;2022-10-16T00:07:28;15.10;99.90
49042;DHT22;34859;51.608;11.462;2022-10-16T00:10:12;15.10;99.90
49042;DHT22;34859;51.608;11.462;2022-10-16T00:12:56;15.00;99.90
49042;DHT22;34859;51.608;11.462;2022-10-16T00:15:37;14.90;99.90
49042;DHT22;34859;51.608;11.462;2022-10-16T00:18:23;14.80;99.90
49042;DHT22;34859;51.608;11.462;2022-10-16T00:21:16;14.60;99.90
49042;DHT22;34859;51.608;11.462;2022-10-16T00:24:03;14.30;99.90
49042;DHT22;34859;51.608;11.462;2022-10-16T00:26:49;14.20;99.90
49042;DHT22;34859;51.608;11.462;2022-10-16T00:29:34;14.10;99.90
49042;DHT22;34859;51.608;11.462;2022-10-16T00:32:19;14.00;99.90
49042;DHT22;34859;51.608;11.462;2022-10-16T00:35:03;13.90;99.90
49042;DHT22;34859;51.608;11.462;2022-10-16T00:37:48;13.80;99.90
49042;DHT22;34859;51.608;11.462;2022-10-16T00:40:32;13.70;99.90
49042;DHT22;34859;51.608;11.462;2022-10-16T00:46:21;13.60;99.90
49042;DHT22;34859;51.608;11.462;2022-10-16T00:49:17;13.60;99.90
49042;DHT22;34859;51.608;11.462;2022-10-16T00:52:03;13.50;99.90
49042;DHT22;34859;51.608;11.462;2022-10-16T00:54:50;13.40;99.90
49042;DHT22;34859;51.608;11.462;2022-10-16T00:57:35;13.40;99.90
49042;DHT22;34859;51.608;11.462;2022-10-16T01:00:24;13.20;99.90
49042;DHT22;34859;51.608;11.462;2022-10-16T01:06:31;13.00;99.90
49042;DHT22;34859;51.608;11.462;2022-10-16T01:15:34;13.00;99.90
49042;DHT22;34859;51.608;11.462;2022-10-16T01:18:29;12.90;99.90
49042;DHT22;34859;51.608;11.462;2022-10-16T01:21:26;12.90;99.90
49042;DHT22;34859;51.608;11.462;2022-10-16T01:29:56;12.80;99.90
49042;DHT22;34859;51.608;11.462;2022-10-16T01:32:46;12.90;99.90
49042;DHT22;34859;51.608;11.462;2022-10-16T01:35:36;12.90;99.90
49042;DHT22;34859;51.608;11.462;2022-10-16T01:41:20;12.90;99.90
49042;DHT22;34859;51.608;11.462;2022-10-16T01:44:22;12.90;99.90
49042;DHT22;34859;51.608;11.462;2022-10-16T01:47:10;13.10;99.90
49042;DHT22;34859;51.608;11.462;2022-10-16T01:49:58;13.10;99.90
49042;DHT22;34859;51.608;11.462;2022-10-16T01:52:45;13.30;99.90
49042;DHT22;34859;51.608;11.462;2022-10-16T01:55:33;13.40;99.90
49042;DHT22;34859;51.608;11.462;2022-10-16T01:58:19;13.30;99.90
49042;DHT22;34859;51.608;11.462;2022-10-16T02:01:04;13.30;99.90
49042;DHT22;34859;51.608;11.462;2022-10-16T02:03:54;13.30;99.90
49042;DHT22;34859;51.608;11.462;2022-10-16T02:06:40;13.30;99.90
49042;DHT22;34859;51.608;11.462;2022-10-16T02:09:25;13.30;99.90
49042;DHT22;34859;51.608;11.462;2022-10-16T02:12:15;13.40;99.90
49042;DHT22;34859;51.608;11.462;2022-10-16T02:14:59;13.40;99.90
49042;DHT22;34859;51.608;11.462;2022-10-16T02:17:43;13.40;99.90
49042;DHT22;34859;51.608;11.462;2022-10-16T02:20:32;13.30;99.90
49042;DHT22;34859;51.608;11.462;2022-10-16T02:23:35;13.20;99.90
49042;DHT22;34859;51.608;11.462;2022-10-16T02:29:38;13.00;99.90
49042;DHT22;34859;51.608;11.462;2022-10-16T02:32:29;13.00;99.90
49042;DHT22;34859;51.608;11.462;2022-10-16T02:35:19;12.90;99.90
49042;DHT22;34859;51.608;11.462;2022-10-16T02:38:05;12.90;99.90
49042;DHT22;34859;51.608;11.462;2022-10-16T02:40:49;13.00;99.90
49042;DHT22;34859;51.608;11.462;2022-10-16T02:43:34;13.00;99.90
49042;DHT22;34859;51.608;11.462;2022-10-16T02:46:18;13.00;99.90
49042;DHT22;34859;51.608;11.462;2022-10-16T02:49:03;13.00;99.90
49042;DHT22;34859;51.608;11.462;2022-10-16T02:51:47;13.00;99.90
49042;DHT22;34859;51.608;11.462;2022-10-16T02:54:31;13.10;99.90
49042;DHT22;34859;51.608;11.462;2022-10-16T02:57:15;13.10;99.90
49042;DHT22;34859;51.608;11.462;2022-10-16T02:59:59;13.00;99.90
49042;DHT22;34859;51.608;11.462;2022-10-16T03:02:44;13.00;99.90
49042;DHT22;34859;51.608;11.462;2022-10-16T03:05:28;13.00;99.90
49042;DHT22;34859;51.608;11.462;2022-10-16T03:08:13;13.00;99.90
49042;DHT22;34859;51.608;11.462;2022-10-16T03:10:58;12.90;99.90
49042;DHT22;34859;51.608;11.462;2022-10-16T03:13:42;13.00;99.90
49042;DHT22;34859;51.608;11.462;2022-10-16T03:16:26;12.90;99.90
49042;DHT22;34859;51.608;11.462;2022-10-16T03:19:10;12.90;99.90
49042;DHT22;34859;51.608;11.462;2022-10-16T03:21:54;12.80;99.90
49042;DHT22;34859;51.608;11.462;2022-10-16T03:24:38;12.80;99.90
49042;DHT22;34859;51.608;11.462;2022-10-16T03:27:22;12.80;99.90
49042;DHT22;34859;51.608;11.462;2022-10-16T03:30:07;12.80;99.90
49042;DHT22;34859;51.608;11.462;2022-10-16T03:32:51;12.80;99.90
49042;DHT22;34859;51.608;11.462;2022-10-16T03:35:38;12.80;99.90
49042;DHT22;34859;51.608;11.462;2022-10-16T03:38:22;12.80;99.90
49042;DHT22;34859;51.608;11.462;2022-10-16T03:41:06;12.80;99.90
49042;DHT22;34859;51.608;11.462;2022-10-16T03:43:51;12.80;99.90
49042;DHT22;34859;51.608;11.462;2022-10-16T03:46:35;12.80;99.90
49042;DHT22;34859;51.608;11.462;2022-10-16T03:49:19;12.80;99.90
49042;DHT22;34859;51.608;11.462;2022-10-16T03:52:04;12.80;99.90
49042;DHT22;34859;51.608;11.462;2022-10-16T03:54:48;12.80;99.90
49042;DHT22;34859;51.608;11.462;2022-10-16T03:57:32;12.80;99.90
49042;DHT22;34859;51.608;11.462;2022-10-16T04:00:16;12.80;99.90
49042;DHT22;34859;51.608;11.462;2022-10-16T04:03:01;12.90;99.90
49042;DHT22;34859;51.608;11.462;2022-10-16T04:05:45;13.00;99.90
49042;DHT22;34859;51.608;11.462;2022-10-16T04:08:29;12.90;99.90
49042;DHT22;34859;51.608;11.462;2022-10-16T04:11:13;12.80;99.90
49042;DHT22;34859;51.608;11.462;2022-10-16T04:13:57;12.80;99.90
49042;DHT22;34859;51.608;11.462;2022-10-16T04:16:41;12.80;99.90
49042;DHT22;34859;51.608;11.462;2022-10-16T04:19:26;12.80;99.90
49042;DHT22;34859;51.608;11.462;2022-10-16T04:22:11;12.70;99.90
49042;DHT22;34859;51.608;11.462;2022-10-16T04:24:56;12.70;99.90
49042;DHT22;34859;51.608;11.462;2022-10-16T04:27:40;12.70;99.90
49042;DHT22;34859;51.608;11.462;2022-10-16T04:30:24;12.70;99.90
49042;DHT22;34859;51.608;11.462;2022-10-16T04:33:09;12.60;99.90
49042;DHT22;34859;51.608;11.462;2022-10-16T04:36:00;12.60;99.90
49042;DHT22;34859;51.608;11.462;2022-10-16T04:38:45;12.50;99.90
49042;DHT22;34859;51.608;11.462;2022-10-16T04:41:29;12.50;99.90
49042;DHT22;34859;51.608;11.462;2022-10-16T04:44:13;12.50;99.90
49042;DHT22;34859;51.608;11.462;2022-10-16T04:46:57;12.50;99.90
49042;DHT22;34859;51.608;11.462;2022-10-16T04:49:41;12.50;99.90
49042;DHT22;34859;51.608;11.462;2022-10-16T04:52:25;12.40;99.90
49042;DHT22;34859;51.608;11.462;2022-10-16T04:55:10;12.40;99.90
49042;DHT22;34859;51.608;11.462;2022-10-16T04:57:54;12.50;99.90
49042;DHT22;34859;51.608;11.462;2022-10-16T05:00:38;12.50;99.90
49042;DHT22;34859;51.608;11.462;2022-10-16T05:03:23;12.50;99.90
49042;DHT22;34859;51.608;11.462;2022-10-16T05:06:07;12.60;99.90
49042;DHT22;34859;51.608;11.462;2022-10-16T05:08:51;12.60;99.90
49042;DHT22;34859;51.608;11.462;2022-10-16T05:11:36;12.50;99.90
49042;DHT22;34859;51.608;11.462;2022-10-16T05:14:20;12.50;99.90
49042;DHT22;34859;51.608;11.462;2022-10-16T05:17:04;12.60;99.90
49042;DHT22;34859;51.608;11.462;2022-10-16T05:19:48;12.50;99.90
49042;DHT22;34859;51.608;11.462;2022-10-16T05:22:32;12.40;99.90
49042;DHT22;34859;51.608;11.462;2022-10-16T05:25:16;12.40;99.90
49042;DHT22;34859;51.608;11.462;2022-10-16T05:28:00;12.40;99.90
49042;DHT22;34859;51.608;11.462;2022-10-16T05:30:45;12.50;99.90
49042;DHT22;34859;51.608;11.462;2022-10-16T05:33:29;12.70;99.90
49042;DHT22;34859;51.608;11.462;2022-10-16T05:36:13;12.80;99.90
49042;DHT22;34859;51.608;11.462;2022-10-16T05:38:57;12.90;99.90
49042;DHT22;34859;51.608;11.462;2022-10-16T05:41:42;13.00;99.90
49042;DHT22;34859;51.608;11.462;2022-10-16T05:44:26;13.00;99.90
49042;DHT22;34859;51.608;11.462;2022-10-16T05:47:12;13.10;99.90
49042;DHT22;34859;51.608;11.462;2022-10-16T05:49:55;13.10;99.90
49042;DHT22;34859;51.608;11.462;2022-10-16T05:52:39;13.10;99.90
49042;DHT22;34859;51.608;11.462;2022-10-16T05:55:23;13.10;99.90
49042;DHT22;34859;51.608;11.462;2022-10-16T05:58:07;13.30;99.90
49042;DHT22;34859;51.608;11.462;2022-10-16T06:01:00;13.40;99.90
49042;DHT22;34859;51.608;11.462;2022-10-16T06:03:45;13.40;99.90
49042;DHT22;34859;51.608;11.462;2022-10-16T06:06:29;13.40;99.90
49042;DHT22;34859;51.608;11.462;2022-10-16T06:09:12;13.40;99.90
49042;DHT22;34859;51.608;11.462;2022-10-16T06:11:56;13.40;99.90
49042;DHT22;34859;51.608;11.462;2022-10-16T06:14:40;13.50;99.90
49042;DHT22;34859;51.608;11.462;2022-10-16T06:17:24;13.60;99.90
49042;DHT22;34859;51.608;11.462;2022-10-16T06:20:08;13.70;99.90
49042;DHT22;34859;51.608;11.462;2022-10-16T06:22:52;13.70;99.90
49042;DHT22;34859;51.608;11.462;2022-10-16T06:25:36;13.80;99.90
49042;DHT22;34859;51.608;11.462;2022-10-16T06:28:21;13.90;99.90
49042;DHT22;34859;51.608;11.462;2022-10-16T06:31:07;13.90;99.90
49042;DHT22;34859;51.608;11.462;2022-10-16T06:33:52;14.00;99.90
49042;DHT22;34859;51.608;11.462;2022-10-16T06:36:37;14.10;99.90
49042;DHT22;34859;51.608;11.462;2022-10-16T06:39:22;14.10;99.90
49042;DHT22;34859;51.608;11.462;2022-10-16T06:42:06;14.20;99.90
49042;DHT22;34859;51.608;11.462;2022-10-16T06:44:50;14.20;99.90
49042;DHT22;34859;51.608;11.462;2022-10-16T06:47:34;14.20;99.90
49042;DHT22;34859;51.608;11.462;2022-10-16T06:50:18;14.30;99.90
49042;DHT22;34859;51.608;11.462;2022-10-16T06:53:02;14.30;99.90
49042;DHT22;34859;51.608;11.462;2022-10-16T06:55:46;14.40;99.90
49042;DHT22;34859;51.608;11.462;2022-10-16T06:58:30;14.50;99.90
49042;DHT22;34859;51.608;11.462;2022-10-16T07:01:15;14.60;99.90
49042;DHT22;34859;51.608;11.462;2022-10-16T07:04:00;14.60;99.90
49042;DHT22;34859;51.608;11.462;2022-10-16T07:06:45;14.60;99.90
49042;DHT22;34859;51.608;11.462;2022-10-16T07:09:29;14.70;99.90
49042;DHT22;34859;51.608;11.462;2022-10-16T07:12:13;14.70;99.90
49042;DHT22;34859;51.608;11.462;2022-10-16T07:14:57;14.80;99.90
49042;DHT22;34859;51.608;11.462;2022-10-16T07:17:41;14.80;99.90
49042;DHT22;34859;51.608;11.462;2022-10-16T07:20:25;14.90;99.90
49042;DHT22;34859;51.608;11.462;2022-10-16T07:23:09;15.00;99.90
49042;DHT22;34859;51.608;11.462;2022-10-16T07:25:54;15.00;99.90
49042;DHT22;34859;51.608;11.462;2022-10-16T07:28:38;15.00;99.90
49042;DHT22;34859;51.608;11.462;2022-10-16T07:31:23;15.20;99.90
49042;DHT22;34859;51.608;11.462;2022-10-16T07:34:09;15.30;99.90
49042;DHT22;34859;51.608;11.462;2022-10-16T07:36:53;15.40;99.90
49042;DHT22;34859;51.608;11.462;2022-10-16T07:39:37;15.40;99.90
49042;DHT22;34859;51.608;11.462;2022-10-16T07:42:21;15.40;99.90
49042;DHT22;34859;51.608;11.462;2022-10-16T07:45:06;15.50;99.90
49042;DHT22;34859;51.608;11.462;2022-10-16T07:47:50;15.60;99.90
49042;DHT22;34859;51.608;11.462;2022-10-16T07:50:34;15.60;99.90
49042;DHT22;34859;51.608;11.462;2022-10-16T07:53:18;15.70;99.90
49042;DHT22;34859;51.608;11.462;2022-10-16T07:56:05;15.70;99.90
49042;DHT22;34859;51.608;11.462;2022-10-16T07:58:50;15.80;99.90
49042;DHT22;34859;51.608;11.462;2022-10-16T08:01:35;15.90;99.90
49042;DHT22;34859;51.608;11.462;2022-10-16T08:04:19;16.00;99.90
49042;DHT22;34859;51.608;11.462;2022-10-16T08:07:03;16.00;99.90
49042;DHT22;34859;51.608;11.462;2022-10-16T08:09:49;16.10;99.90
49042;DHT22;34859;51.608;11.462;2022-10-16T08:12:34;16.10;99.90
49042;DHT22;34859;51.608;11.462;2022-10-16T08:15:18;16.20;99.90
49042;DHT22;34859;51.608;11.462;2022-10-16T08:18:04;16.30;99.90
49042;DHT22;34859;51.608;11.462;2022-10-16T08:20:55;16.30;99.90
49042;DHT22;34859;51.608;11.462;2022-10-16T08:23:41;16.40;99.90
49042;DHT22;34859;51.608;11.462;2022-10-16T08:26:26;16.40;99.90
49042;DHT22;34859;51.608;11.462;2022-10-16T08:29:11;16.50;99.90
49042;DHT22;34859;51.608;11.462;2022-10-16T08:31:57;16.50;99.90
49042;DHT22;34859;51.608;11.462;2022-10-16T08:34:41;16.60;99.90
49042;DHT22;34859;51.608;11.462;2022-10-16T08:37:29;16.70;99.90
49042;DHT22;34859;51.608;11.462;2022-10-16T08:40:23;16.70;99.90
49042;DHT22;34859;51.608;11.462;2022-10-16T08:43:27;16.70;99.90
49042;DHT22;34859;51.608;11.462;2022-10-16T08:49:22;16.80;99.90
49042;DHT22;34859;51.608;11.462;2022-10-16T08:52:13;16.80;99.90
49042;DHT22;34859;51.608;11.462;2022-10-16T08:54:58;16.80;99.90
49042;DHT22;34859;51.608;11.462;2022-10-16T08:57:42;16.90;99.90
49042;DHT22;34859;51.608;11.462;2022-10-16T09:00:27;16.90;99.90
49042;DHT22;34859;51.608;11.462;2022-10-16T09:09:37;17.10;99.90
49042;DHT22;34859;51.608;11.462;2022-10-16T09:12:30;17.10;99.90
49042;DHT22;34859;51.608;11.462;2022-10-16T09:15:30;17.10;99.90
49042;DHT22;34859;51.608;11.462;2022-10-16T09:18:27;17.20;99.90
49042;DHT22;34859;51.608;11.462;2022-10-16T09:21:31;17.30;99.90
49042;DHT22;34859;51.608;11.462;2022-10-16T09:24:21;17.30;99.90
49042;DHT22;34859;51.608;11.462;2022-10-16T09:27:12;17.30;99.90
49042;DHT22;34859;51.608;11.462;2022-10-16T09:29:57;17.40;99.90
49042;DHT22;34859;51.608;11.462;2022-10-16T09:32:43;17.50;99.90
49042;DHT22;34859;51.608;11.462;2022-10-16T09:35:37;17.50;99.90
49042;DHT22;34859;51.608;11.462;2022-10-16T09:38:27;17.60;99.90
49042;DHT22;34859;51.608;11.462;2022-10-16T09:41:20;17.70;99.90
49042;DHT22;34859;51.608;11.462;2022-10-16T09:47:15;17.80;99.90
49042;DHT22;34859;51.608;11.462;2022-10-16T09:50:15;17.80;99.90
49042;DHT22;34859;51.608;11.462;2022-10-16T09:53:14;17.70;99.90
49042;DHT22;34859;51.608;11.462;2022-10-16T09:55:58;17.70;99.90
49042;DHT22;34859;51.608;11.462;2022-10-16T09:58:43;17.70;99.90
49042;DHT22;34859;51.608;11.462;2022-10-16T10:01:38;17.70;99.90
49042;DHT22;34859;51.608;11.462;2022-10-16T10:04:24;17.70;99.90
49042;DHT22;34859;51.608;11.462;2022-10-16T10:07:18;17.70;99.90
49042;DHT22;34859;51.608;11.462;2022-10-16T10:10:05;17.70;99.90
49042;DHT22;34859;51.608;11.462;2022-10-16T10:12:50;17.70;99.90
49042;DHT22;34859;51.608;11.462;2022-10-16T10:15:41;17.70;99.90
49042;DHT22;34859;51.608;11.462;2022-10-16T10:18:25;17.70;99.90
49042;DHT22;34859;51.608;11.462;2022-10-16T10:21:14;17.70;99.90
49042;DHT22;34859;51.608;11.462;2022-10-16T10:23:59;17.70;99.90
49042;DHT22;34859;51.608;11.462;2022-10-16T10:27:05;17.60;99.90
49042;DHT22;34859;51.608;11.462;2022-10-16T10:38:59;17.50;99.90
49042;DHT22;34859;51.608;11.462;2022-10-16T10:44:52;17.70;99.90
49042;DHT22;34859;51.608;11.462;2022-10-16T10:53:44;18.70;99.90
49042;DHT22;34859;51.608;11.462;2022-10-16T10:56:51;19.00;99.90
49042;DHT22;34859;51.608;11.462;2022-10-16T11:05:58;19.30;99.90
49042;DHT22;34859;51.608;11.462;2022-10-16T11:14:44;19.10;99.90
49042;DHT22;34859;51.608;11.462;2022-10-16T11:17:34;18.80;99.90
49042;DHT22;34859;51.608;11.462;2022-10-16T11:20:42;18.80;99.90
49042;DHT22;34859;51.608;11.462;2022-10-16T11:26:28;18.70;99.90
49042;DHT22;34859;51.608;11.462;2022-10-16T11:29:27;18.60;99.90
49042;DHT22;34859;51.608;11.462;2022-10-16T11:32:35;18.60;99.90
49042;DHT22;34859;51.608;11.462;2022-10-16T11:38:49;18.90;99.90
49042;DHT22;34859;51.608;11.462;2022-10-16T11:41:50;19.10;99.90
49042;DHT22;34859;51.608;11.462;2022-10-16T11:51:08;19.00;99.90
49042;DHT22;34859;51.608;11.462;2022-10-16T11:57:11;19.10;99.90
49042;DHT22;34859;51.608;11.462;2022-10-16T12:00:09;19.10;99.90
49042;DHT22;34859;51.608;11.462;2022-10-16T12:09:32;19.30;99.90
49042;DHT22;34859;51.608;11.462;2022-10-16T12:12:27;19.50;99.90
49042;DHT22;34859;51.608;11.462;2022-10-16T12:15:22;19.60;99.90
49042;DHT22;34859;51.608;11.462;2022-10-16T12:18:19;19.70;99.90
49042;DHT22;34859;51.608;11.462;2022-10-16T12:21:05;19.60;99.90
49042;DHT22;34859;51.608;11.462;2022-10-16T12:24:03;19.50;99.90
49042;DHT22;34859;51.608;11.462;2022-10-16T12:26:50;19.50;99.90
49042;DHT22;34859;51.608;11.462;2022-10-16T12:29:41;19.50;99.90
49042;DHT22;34859;51.608;11.462;2022-10-16T12:32:37;19.60;99.90
49042;DHT22;34859;51.608;11.462;2022-10-16T12:35:26;19.60;99.90
49042;DHT22;34859;51.608;11.462;2022-10-16T12:38:27;19.60;99.90
49042;DHT22;34859;51.608;11.462;2022-10-16T12:41:12;19.70;99.90
49042;DHT22;34859;51.608;11.462;2022-10-16T12:43:59;19.70;99.90
49042;DHT22;34859;51.608;11.462;2022-10-16T12:46:46;19.80;99.90
49042;DHT22;34859;51.608;11.462;2022-10-16T12:52:36;19.90;99.90
49042;DHT22;34859;51.608;11.462;2022-10-16T12:55:22;19.90;99.90
49042;DHT22;34859;51.608;11.462;2022-10-16T13:04:14;19.90;99.90
49042;DHT22;34859;51.608;11.462;2022-10-16T13:07:26;20.00;99.90
49042;DHT22;34859;51.608;11.462;2022-10-16T13:10:28;20.00;99.90
49042;DHT22;34859;51.608;11.462;2022-10-16T13:16:32;20.00;99.90
49042;DHT22;34859;51.608;11.462;2022-10-16T13:28:45;20.20;99.90
49042;DHT22;34859;51.608;11.462;2022-10-16T13:31:30;20.20;99.90
49042;DHT22;34859;51.608;11.462;2022-10-16T13:34:21;20.20;99.90
49042;DHT22;34859;51.608;11.462;2022-10-16T13:37:20;20.30;99.90
49042;DHT22;34859;51.608;11.462;2022-10-16T13:40:19;20.30;99.90
49042;DHT22;34859;51.608;11.462;2022-10-16T13:43:04;20.20;99.90
49042;DHT22;34859;51.608;11.462;2022-10-16T13:46:32;20.20;99.90
49042;DHT22;34859;51.608;11.462;2022-10-16T13:49:16;20.20;99.90
49042;DHT22;34859;51.608;11.462;2022-10-16T13:52:01;20.20;99.90
49042;DHT22;34859;51.608;11.462;2022-10-16T13:54:45;20.10;99.90
49042;DHT22;34859;51.608;11.462;2022-10-16T13:57:29;20.10;99.90
49042;DHT22;34859;51.608;11.462;2022-10-16T14:00:32;20.10;99.90
49042;DHT22;34859;51.608;11.462;2022-10-16T14:03:20;20.10;99.90
49042;DHT22;34859;51.608;11.462;2022-10-16T14:06:06;20.10;99.90
49042;DHT22;34859;51.608;11.462;2022-10-16T14:09:01;20.10;99.90
49042;DHT22;34859;51.608;11.462;2022-10-16T14:11:49;20.00;99.90
49042;DHT22;34859;51.608;11.462;2022-10-16T14:14:44;19.80;99.90
49042;DHT22;34859;51.608;11.462;2022-10-16T14:17:34;19.70;99.90
49042;DHT22;34859;51.608;11.462;2022-10-16T14:20:22;19.50;99.90
49042;DHT22;34859;51.608;11.462;2022-10-16T14:23:28;19.40;99.90
49042;DHT22;34859;51.608;11.462;2022-10-16T14:26:18;19.30;99.90
49042;DHT22;34859;51.608;11.462;2022-10-16T14:29:18;19.40;99.90
49042;DHT22;34859;51.608;11.462;2022-10-16T14:32:05;19.50;99.90
49042;DHT22;34859;51.608;11.462;2022-10-16T14:34:53;19.60;99.90
49042;DHT22;34859;51.608;11.462;2022-10-16T14:37:39;19.70;99.90
49042;DHT22;34859;51.608;11.462;2022-10-16T14:40:27;19.60;99.90
49042;DHT22;34859;51.608;11.462;2022-10-16T14:43:21;19.60;99.90
49042;DHT22;34859;51.608;11.462;2022-10-16T14:46:13;19.50;99.90
49042;DHT22;34859;51.608;11.462;2022-10-16T14:49:04;19.40;99.90
49042;DHT22;34859;51.608;11.462;2022-10-16T14:51:57;19.50;99.90
49042;DHT22;34859;51.608;11.462;2022-10-16T14:54:41;19.50;99.90
49042;DHT22;34859;51.608;11.462;2022-10-16T14:57:35;19.50;99.90
49042;DHT22;34859;51.608;11.462;2022-10-16T15:00:24;19.40;99.90
49042;DHT22;34859;51.608;11.462;2022-10-16T15:03:08;19.50;99.90
49042;DHT22;34859;51.608;11.462;2022-10-16T15:05:52;19.40;99.90
49042;DHT22;34859;51.608;11.462;2022-10-16T15:08:36;19.40;99.90
49042;DHT22;34859;51.608;11.462;2022-10-16T15:11:20;19.40;99.90
49042;DHT22;34859;51.608;11.462;2022-10-16T15:14:05;19.40;99.90
49042;DHT22;34859;51.608;11.462;2022-10-16T15:16:49;19.30;99.90
49042;DHT22;34859;51.608;11.462;2022-10-16T15:19:33;19.20;99.90
49042;DHT22;34859;51.608;11.462;2022-10-16T15:22:18;19.20;99.90
49042;DHT22;34859;51.608;11.462;2022-10-16T15:25:19;19.20;99.90
49042;DHT22;34859;51.608;11.462;2022-10-16T15:27:49;19.10;99.90
49042;DHT22;34859;51.608;11.462;2022-10-16T15:30:34;19.00;99.90
49042;DHT22;34859;51.608;11.462;2022-10-16T15:33:24;18.90;99.90
49042;DHT22;34859;51.608;11.462;2022-10-16T15:36:11;18.90;99.90
49042;DHT22;34859;51.608;11.462;2022-10-16T15:38:55;18.80;99.90
49042;DHT22;34859;51.608;11.462;2022-10-16T15:41:40;18.60;99.90
49042;DHT22;34859;51.608;11.462;2022-10-16T15:44:25;18.50;99.90
49042;DHT22;34859;51.608;11.462;2022-10-16T15:47:14;18.20;99.90
49042;DHT22;34859;51.608;11.462;2022-10-16T15:49:58;18.00;99.90
49042;DHT22;34859;51.608;11.462;2022-10-16T15:52:42;17.80;99.90
49042;DHT22;34859;51.608;11.462;2022-10-16T15:55:26;17.80;99.90
49042;DHT22;34859;51.608;11.462;2022-10-16T15:58:10;17.70;99.90
49042;DHT22;34859;51.608;11.462;2022-10-16T16:00:58;17.50;99.90
49042;DHT22;34859;51.608;11.462;2022-10-16T16:03:45;17.20;99.90
49042;DHT22;34859;51.608;11.462;2022-10-16T16:06:29;17.00;99.90
49042;DHT22;34859;51.608;11.462;2022-10-16T16:09:14;16.80;99.90
49042;DHT22;34859;51.608;11.462;2022-10-16T16:11:58;16.60;99.90
49042;DHT22;34859;51.608;11.462;2022-10-16T16:14:44;16.50;99.90
49042;DHT22;34859;51.608;11.462;2022-10-16T16:17:33;16.20;99.90
49042;DHT22;34859;51.608;11.462;2022-10-16T16:20:18;16.10;99.90
49042;DHT22;34859;51.608;11.462;2022-10-16T16:23:02;16.00;99.90
49042;DHT22;34859;51.608;11.462;2022-10-16T16:29:05;15.70;99.90
49042;DHT22;34859;51.608;11.462;2022-10-16T16:31:49;15.50;99.90
49042;DHT22;34859;51.608;11.462;2022-10-16T16:34:33;15.40;99.90
49042;DHT22;34859;51.608;11.462;2022-10-16T16:37:18;15.20;99.90
49042;DHT22;34859;51.608;11.462;2022-10-16T16:40:02;15.10;99.90
49042;DHT22;34859;51.608;11.462;2022-10-16T16:42:48;15.10;99.90
49042;DHT22;34859;51.608;11.462;2022-10-16T16:45:35;15.00;99.90
49042;DHT22;34859;51.608;11.462;2022-10-16T16:48:20;15.00;99.90
49042;DHT22;34859;51.608;11.462;2022-10-16T16:51:05;15.00;99.90
49042;DHT22;34859;51.608;11.462;2022-10-16T16:53:51;15.00;99.90
49042;DHT22;34859;51.608;11.462;2022-10-16T16:56:35;14.90;99.90
49042;DHT22;34859;51.608;11.462;2022-10-16T16:59:20;14.80;99.90
49042;DHT22;34859;51.608;11.462;2022-10-16T17:02:05;14.70;99.90
49042;DHT22;34859;51.608;11.462;2022-10-16T17:04:49;14.70;99.90
49042;DHT22;34859;51.608;11.462;2022-10-16T17:07:34;14.70;99.90
49042;DHT22;34859;51.608;11.462;2022-10-16T17:10:19;14.60;99.90
49042;DHT22;34859;51.608;11.462;2022-10-16T17:13:03;14.50;99.90
49042;DHT22;34859;51.608;11.462;2022-10-16T17:15:48;14.40;99.90
49042;DHT22;34859;51.608;11.462;2022-10-16T17:18:33;14.30;99.90
49042;DHT22;34859;51.608;11.462;2022-10-16T17:21:17;14.10;99.90
49042;DHT22;34859;51.608;11.462;2022-10-16T17:24:02;14.00;99.90
49042;DHT22;34859;51.608;11.462;2022-10-16T17:26:47;14.00;99.90
49042;DHT22;34859;51.608;11.462;2022-10-16T17:29:32;13.80;99.90
49042;DHT22;34859;51.608;11.462;2022-10-16T17:32:16;13.80;99.90
49042;DHT22;34859;51.608;11.462;2022-10-16T17:35:00;13.80;99.90
49042;DHT22;34859;51.608;11.462;2022-10-16T17:37:45;13.80;99.90
49042;DHT22;34859;51.608;11.462;2022-10-16T17:40:30;14.00;99.90
49042;DHT22;34859;51.608;11.462;2022-10-16T17:43:14;13.90;99.90
49042;DHT22;34859;51.608;11.462;2022-10-16T17:46:01;13.80;99.90
49042;DHT22;34859;51.608;11.462;2022-10-16T17:48:48;13.90;99.90
49042;DHT22;34859;51.608;11.462;2022-10-16T17:51:32;14.00;99.90
49042;DHT22;34859;51.608;11.462;2022-10-16T17:54:17;14.00;99.90
49042;DHT22;34859;51.608;11.462;2022-10-16T17:57:01;14.10;99.90
49042;DHT22;34859;51.608;11.462;2022-10-16T17:59:45;14.20;99.90
49042;DHT22;34859;51.608;11.462;2022-10-16T18:02:29;14.00;99.90
49042;DHT22;34859;51.608;11.462;2022-10-16T18:05:13;13.80;99.90
49042;DHT22;34859;51.608;11.462;2022-10-16T18:07:57;13.60;99.90
49042;DHT22;34859;51.608;11.462;2022-10-16T18:10:47;13.50;99.90
49042;DHT22;34859;51.608;11.462;2022-10-16T18:13:32;13.70;99.90
49042;DHT22;34859;51.608;11.462;2022-10-16T18:16:16;13.70;99.90
49042;DHT22;34859;51.608;11.462;2022-10-16T18:19:01;13.50;99.90
49042;DHT22;34859;51.608;11.462;2022-10-16T18:21:46;13.30;99.90
49042;DHT22;34859;51.608;11.462;2022-10-16T18:24:32;13.20;99.90
49042;DHT22;34859;51.608;11.462;2022-10-16T18:27:16;13.00;99.90
49042;DHT22;34859;51.608;11.462;2022-10-16T18:30:00;12.90;99.90
49042;DHT22;34859;51.608;11.462;2022-10-16T18:32:44;12.90;99.90
49042;DHT22;34859;51.608;11.462;2022-10-16T18:35:28;12.90;99.90
49042;DHT22;34859;51.608;11.462;2022-10-16T18:38:12;12.90;99.90
49042;DHT22;34859;51.608;11.462;2022-10-16T18:40:57;13.00;99.90
49042;DHT22;34859;51.608;11.462;2022-10-16T18:43:45;13.20;99.90
49042;DHT22;34859;51.608;11.462;2022-10-16T18:46:29;13.30;99.90
49042;DHT22;34859;51.608;11.462;2022-10-16T18:49:13;13.10;99.90
49042;DHT22;34859;51.608;11.462;2022-10-16T18:51:58;13.10;99.90
49042;DHT22;34859;51.608;11.462;2022-10-16T18:54:43;13.00;99.90
49042;DHT22;34859;51.608;11.462;2022-10-16T18:57:28;13.00;99.90
49042;DHT22;34859;51.608;11.462;2022-10-16T19:00:15;13.10;99.90
49042;DHT22;34859;51.608;11.462;2022-10-16T19:03:00;13.20;99.90
49042;DHT22;34859;51.608;11.462;2022-10-16T19:05:44;13.20;99.90
49042;DHT22;34859;51.608;11.462;2022-10-16T19:08:31;13.10;99.90
49042;DHT22;34859;51.608;11.462;2022-10-16T19:11:19;13.20;99.90
49042;DHT22;34859;51.608;11.462;2022-10-16T19:14:04;13.30;99.90